Aviation Digital Data Service (ADDS)

Output produced by METARs form (0231 UTC 22 April 2019)
found at http://www.aviationweather.gov/metar/data/
 
Forecast for: EGCC (MANCHESTER INTL , GB)
Text: TAF EGCC 212256Z 2200/2306 12006KT 9999 FEW045
Forecast period: 0000 UTC 22 April 2019 to 0600 UTC 23 April 2019
Forecast type: FROM: standard forecast or significant change
Winds: from the ESE (120 degrees) at 7 MPH (6 knots; 3.1 m/s)
Visibility: 6 or more miles 10+ km)
Ceiling: at least 12,000 feet AGL
Clouds: few clouds at 4500 feet AGL
Weather: no significant weather forecast for this period
Text: PROB30
Forecast period: 0200 to 0800 UTC 22 April 2019
Forecast type: TEMPORARY: The following changes expected for less than half the time period
Visibility: 6 miles (9 km)
Ceiling: unknown
Clouds: missing
Weather: no significant weather forecast for this period